Time;durP1;ratioP1;P1;durP2;ratioP2;P2;SDS_P1;SDS_P2;PMS_P1;PMS_P2;Temp;Humidity;BMP_temperature;BMP_pressure;BME280_temperature;BME280_humidity;BME280_pressure;Samples;Min_cycle;Max_cycle;Signal;HPM_P1;HPM_P2
2023/08/30 00:00:05;;;;;;;15.07;13.45;;;13.20;99.90;;;;;;5140498;27;20492;-69
2023/08/30 00:02:31;;;;;;;15.70;12.57;;;13.10;99.90;;;;;;5129897;27;20049;-69
2023/08/30 00:05:00;;;;;;;15.77;13.80;;;13.20;99.90;;;;;;5140343;27;20043;-67
2023/08/30 00:07:26;;;;;;;14.00;12.52;;;13.10;99.90;;;;;;5123002;27;20069;-69
2023/08/30 00:09:52;;;;;;;13.85;12.32;;;13.10;99.90;;;;;;5147891;27;20045;-66
2023/08/30 00:12:17;;;;;;;14.85;13.10;;;13.10;99.90;;;;;;5145145;27;20109;-66
2023/08/30 00:14:43;;;;;;;14.70;13.18;;;13.10;99.90;;;;;;5140966;27;20506;-66
2023/08/30 00:17:09;;;;;;;16.70;13.75;;;13.10;99.90;;;;;;5145006;27;20037;-66
2023/08/30 00:19:34;;;;;;;19.08;14.52;;;13.10;99.90;;;;;;5148719;27;20393;-68
2023/08/30 00:22:00;;;;;;;17.20;14.63;;;13.10;99.90;;;;;;5140192;27;20038;-69
2023/08/30 00:24:26;;;;;;;18.00;13.95;;;13.00;99.90;;;;;;5143241;27;20071;-66
2023/08/30 00:26:52;;;;;;;14.27;12.70;;;13.00;99.90;;;;;;5140974;27;20042;-68
2023/08/30 00:29:17;;;;;;;14.40;12.90;;;13.00;99.90;;;;;;5138654;27;20549;-68
2023/08/30 00:31:43;;;;;;;14.60;13.05;;;12.90;99.90;;;;;;5145114;27;20608;-69
2023/08/30 00:34:08;;;;;;;13.82;12.32;;;12.90;99.90;;;;;;5139673;27;20085;-67
2023/08/30 00:36:34;;;;;;;13.35;11.95;;;12.90;99.90;;;;;;5139834;27;20043;-67
2023/08/30 00:38:59;;;;;;;14.45;12.82;;;12.90;99.90;;;;;;5146085;27;20118;-66
2023/08/30 00:41:25;;;;;;;15.88;12.63;;;12.90;99.90;;;;;;5139943;27;20050;-66
2023/08/30 00:43:51;;;;;;;17.60;12.85;;;12.90;99.90;;;;;;5139281;27;20066;-67
2023/08/30 00:46:17;;;;;;;15.75;12.73;;;12.90;99.90;;;;;;5142478;27;20038;-67
2023/08/30 00:48:44;;;;;;;15.95;12.55;;;12.90;99.90;;;;;;5142336;27;20039;-69
2023/08/30 00:51:10;;;;;;;14.90;13.10;;;12.80;99.90;;;;;;5141971;27;20043;-68
2023/08/30 00:53:36;;;;;;;15.52;12.75;;;12.90;99.90;;;;;;5143168;27;20057;-70
2023/08/30 00:56:02;;;;;;;14.13;12.07;;;12.90;99.90;;;;;;5142362;27;20026;-71
2023/08/30 00:58:28;;;;;;;13.85;11.80;;;12.90;99.90;;;;;;5142776;27;20089;-68
2023/08/30 01:00:54;;;;;;;14.10;12.45;;;12.80;99.90;;;;;;5145272;27;20388;-71
2023/08/30 01:03:22;;;;;;;15.93;12.35;;;12.80;99.90;;;;;;5140323;27;20055;-69
2023/08/30 01:05:47;;;;;;;16.77;13.40;;;12.80;99.90;;;;;;5142524;27;20099;-69
2023/08/30 01:08:14;;;;;;;17.67;12.50;;;12.80;99.90;;;;;;5123666;27;20050;-68
2023/08/30 01:11:10;;;;;;;16.58;12.73;;;12.90;99.90;;;;;;5147369;27;20489;-70
2023/08/30 01:13:44;;;;;;;14.20;11.77;;;12.70;99.90;;;;;;5140676;27;20050;-67
2023/08/30 01:16:11;;;;;;;17.47;11.60;;;12.70;99.90;;;;;;5138840;27;20035;-71
2023/08/30 01:18:39;;;;;;;14.20;11.57;;;12.70;99.90;;;;;;5147134;27;20790;-71
2023/08/30 01:21:07;;;;;;;15.95;11.68;;;12.70;99.90;;;;;;5139009;27;20053;-69
2023/08/30 01:23:52;;;;;;;13.70;11.48;;;12.60;99.90;;;;;;5138943;27;20414;-69
2023/08/30 01:26:36;;;;;;;17.50;12.35;;;12.60;99.90;;;;;;5138932;27;20093;-67
2023/08/30 01:29:04;;;;;;;15.20;11.98;;;12.60;99.90;;;;;;5141571;27;20094;-66
2023/08/30 01:31:33;;;;;;;15.93;12.45;;;12.60;99.90;;;;;;5141600;27;20043;-67
2023/08/30 01:34:02;;;;;;;13.25;11.70;;;12.50;99.90;;;;;;5139756;27;20043;-71
2023/08/30 01:36:28;;;;;;;13.65;11.93;;;12.50;99.90;;;;;;5137874;27;20042;-67
2023/08/30 01:38:54;;;;;;;13.10;11.65;;;12.40;99.90;;;;;;5141357;27;20121;-71
2023/08/30 01:41:23;;;;;;;15.35;12.55;;;12.40;99.90;;;;;;5138772;27;20122;-67
2023/08/30 01:43:50;;;;;;;15.55;11.40;;;12.30;99.90;;;;;;5138709;27;20075;-68
2023/08/30 01:46:19;;;;;;;15.52;12.07;;;12.30;99.90;;;;;;5143100;27;20035;-67
2023/08/30 01:48:46;;;;;;;17.15;12.80;;;12.30;99.90;;;;;;5149291;27;20046;-70
2023/08/30 01:51:13;;;;;;;15.07;12.63;;;12.30;99.90;;;;;;5141641;27;20057;-68
2023/08/30 01:53:39;;;;;;;15.15;13.10;;;12.30;99.90;;;;;;5141996;27;20043;-68
2023/08/30 01:56:05;;;;;;;13.57;11.70;;;12.30;99.90;;;;;;5141192;27;20035;-67
2023/08/30 01:58:30;;;;;;;17.33;12.85;;;12.50;99.90;;;;;;5141909;27;20042;-67
2023/08/30 02:00:56;;;;;;;16.52;12.60;;;12.50;99.90;;;;;;5140642;27;20130;-67
2023/08/30 02:03:22;;;;;;;19.73;12.77;;;12.50;99.90;;;;;;5135392;27;20121;-67
2023/08/30 02:05:50;;;;;;;15.88;12.57;;;12.30;99.90;;;;;;5146321;27;20039;-67
2023/08/30 02:08:17;;;;;;;15.98;13.13;;;12.30;99.90;;;;;;5154526;27;20050;-67
2023/08/30 02:10:52;;;;;;;15.27;12.65;;;12.30;99.90;;;;;;5142063;27;20127;-68
2023/08/30 02:13:24;;;;;;;15.68;12.32;;;12.40;99.90;;;;;;5150055;27;20068;-67
2023/08/30 02:15:51;;;;;;;15.18;12.00;;;12.40;99.90;;;;;;5141997;27;20047;-68
2023/08/30 02:18:16;;;;;;;15.85;12.43;;;12.40;99.90;;;;;;5148759;27;20054;-66
2023/08/30 02:20:42;;;;;;;15.73;13.10;;;12.40;99.90;;;;;;5137856;27;20416;-67
2023/08/30 02:23:10;;;;;;;18.83;11.43;;;12.50;99.90;;;;;;5148949;27;20050;-67
2023/08/30 02:25:35;;;;;;;15.27;12.02;;;12.50;99.90;;;;;;5153505;27;20574;-67
2023/08/30 02:28:01;;;;;;;16.08;12.10;;;12.50;99.90;;;;;;5143854;27;20051;-67
2023/08/30 02:30:26;;;;;;;16.05;12.13;;;12.50;99.90;;;;;;5140553;27;20042;-67
2023/08/30 02:32:52;;;;;;;16.42;13.13;;;12.50;99.90;;;;;;5143519;27;20042;-68
2023/08/30 02:35:18;;;;;;;16.38;11.50;;;12.50;99.90;;;;;;5142294;27;20429;-71
2023/08/30 02:37:43;;;;;;;16.60;11.85;;;12.50;99.90;;;;;;5145836;27;20082;-67
2023/08/30 02:40:10;;;;;;;16.20;11.30;;;12.50;99.90;;;;;;5150727;27;20110;-67
2023/08/30 02:42:35;;;;;;;13.85;11.60;;;12.50;99.90;;;;;;5123627;27;20061;-67
2023/08/30 02:45:01;;;;;;;14.98;11.60;;;12.50;99.90;;;;;;5143322;27;20043;-66
2023/08/30 02:47:27;;;;;;;15.93;11.18;;;12.60;99.90;;;;;;5147598;27;20043;-68
2023/08/30 02:49:52;;;;;;;15.75;11.25;;;12.60;99.90;;;;;;5149119;27;20035;-67
2023/08/30 02:52:18;;;;;;;15.65;11.40;;;12.60;99.90;;;;;;5149084;27;20039;-67
2023/08/30 02:54:43;;;;;;;15.07;11.52;;;12.90;99.90;;;;;;5130382;27;20035;-68
2023/08/30 02:57:09;;;;;;;16.85;11.55;;;12.50;99.90;;;;;;5144449;27;20477;-69
2023/08/30 02:59:35;;;;;;;13.63;11.10;;;12.50;99.90;;;;;;5145112;27;20042;-70
2023/08/30 03:02:00;;;;;;;14.18;11.15;;;12.50;99.90;;;;;;5153414;27;20047;-68
2023/08/30 03:04:27;;;;;;;12.18;10.23;;;12.50;99.90;;;;;;5142445;27;20054;-67
2023/08/30 03:06:53;;;;;;;15.32;10.70;;;12.60;99.90;;;;;;5146860;27;20035;-69
2023/08/30 03:09:18;;;;;;;12.98;10.43;;;12.40;99.90;;;;;;5144557;27;20445;-68
2023/08/30 03:11:44;;;;;;;12.07;10.23;;;12.40;99.90;;;;;;5143012;27;20743;-70
2023/08/30 03:14:10;;;;;;;13.95;10.00;;;12.60;99.90;;;;;;5145830;27;20168;-68
2023/08/30 03:16:35;;;;;;;15.20;10.25;;;12.40;99.90;;;;;;5124447;27;20047;-69
2023/08/30 03:19:02;;;;;;;12.63;9.93;;;12.40;99.90;;;;;;5151339;27;20038;-67
2023/08/30 03:21:28;;;;;;;15.82;10.20;;;12.30;99.90;;;;;;5144558;27;20046;-70
2023/08/30 03:23:53;;;;;;;12.90;10.13;;;12.30;99.90;;;;;;5138138;27;20046;-67
2023/08/30 03:26:19;;;;;;;13.18;9.52;;;12.20;99.90;;;;;;5143463;27;20449;-69
2023/08/30 03:28:45;;;;;;;14.80;10.05;;;12.30;99.90;;;;;;5145853;27;20039;-69
2023/08/30 03:31:18;;;;;;;13.70;9.75;;;12.40;99.90;;;;;;5141490;27;20035;-68
2023/08/30 03:33:44;;;;;;;13.80;10.23;;;12.20;99.90;;;;;;5144307;27;20088;-67
2023/08/30 03:36:11;;;;;;;14.55;9.63;;;12.30;99.90;;;;;;5125361;27;20485;-68
2023/08/30 03:38:38;;;;;;;13.68;10.18;;;12.20;99.90;;;;;;5146817;27;20035;-68
2023/08/30 03:41:04;;;;;;;14.02;10.40;;;12.10;99.90;;;;;;5141932;27;20497;-71
2023/08/30 03:43:31;;;;;;;13.00;9.93;;;12.10;99.90;;;;;;5122983;27;20045;-67
2023/08/30 03:45:57;;;;;;;17.15;10.27;;;12.00;99.90;;;;;;5149099;27;20401;-70
2023/08/30 03:48:23;;;;;;;13.60;10.13;;;12.10;99.90;;;;;;5144602;27;20106;-69
2023/08/30 03:50:48;;;;;;;13.90;10.32;;;12.00;99.90;;;;;;5143692;27;20039;-69
2023/08/30 03:53:14;;;;;;;14.45;10.32;;;12.00;99.90;;;;;;5143338;27;20107;-70
2023/08/30 03:55:41;;;;;;;14.48;9.85;;;11.90;99.90;;;;;;5151165;27;20030;-67
2023/08/30 03:58:07;;;;;;;14.70;10.82;;;12.00;99.90;;;;;;5143641;27;20051;-70
2023/08/30 04:00:35;;;;;;;14.77;10.35;;;12.00;99.90;;;;;;5143331;27;20099;-70
2023/08/30 04:03:01;;;;;;;15.35;11.65;;;12.00;99.90;;;;;;5120578;27;20058;-68
2023/08/30 04:05:26;;;;;;;13.90;10.48;;;12.00;99.90;;;;;;5149494;27;20046;-69
2023/08/30 04:07:52;;;;;;;15.07;11.50;;;12.00;99.90;;;;;;5143100;27;20114;-68
2023/08/30 04:10:18;;;;;;;14.80;10.82;;;12.00;99.90;;;;;;5143609;27;20093;-68
2023/08/30 04:12:44;;;;;;;15.13;11.15;;;12.10;99.90;;;;;;5142378;27;20146;-68
2023/08/30 04:15:12;;;;;;;19.15;11.20;;;12.00;99.90;;;;;;5143919;27;20042;-68
2023/08/30 04:17:38;;;;;;;15.00;10.85;;;12.00;99.90;;;;;;5141791;27;20049;-71
2023/08/30 04:20:03;;;;;;;14.85;11.32;;;12.00;99.90;;;;;;5125519;27;20440;-72
2023/08/30 04:22:29;;;;;;;14.60;11.45;;;12.00;99.90;;;;;;5148117;27;20084;-71
2023/08/30 04:24:55;;;;;;;16.40;11.85;;;12.00;99.90;;;;;;5142590;27;20487;-67
2023/08/30 04:27:20;;;;;;;16.92;11.27;;;12.00;99.90;;;;;;5144727;27;20043;-71
2023/08/30 04:29:47;;;;;;;13.55;11.48;;;12.00;99.90;;;;;;5149169;27;20118;-69
2023/08/30 04:32:13;;;;;;;14.13;11.25;;;12.00;99.90;;;;;;5146895;27;20050;-70
2023/08/30 04:34:38;;;;;;;15.38;11.77;;;12.10;99.90;;;;;;5139788;27;20055;-69
2023/08/30 04:37:04;;;;;;;16.20;11.77;;;12.00;99.90;;;;;;5144996;27;20122;-70
2023/08/30 04:39:30;;;;;;;15.27;11.55;;;12.10;99.90;;;;;;5124426;27;20050;-71
2023/08/30 04:41:56;;;;;;;14.70;11.85;;;12.00;99.90;;;;;;5142741;27;20050;-69
2023/08/30 04:44:24;;;;;;;17.50;12.73;;;12.10;99.90;;;;;;5143368;27;20057;-68
2023/08/30 04:46:52;;;;;;;14.57;11.85;;;12.10;99.90;;;;;;5143098;27;20042;-68
2023/08/30 04:49:17;;;;;;;17.15;11.90;;;12.10;99.90;;;;;;5139757;27;20035;-67
2023/08/30 04:51:43;;;;;;;16.58;12.65;;;12.20;99.90;;;;;;5141975;27;20035;-68
2023/08/30 04:54:09;;;;;;;15.70;11.23;;;12.20;99.90;;;;;;5140467;27;20102;-67
2023/08/30 04:56:35;;;;;;;13.48;11.18;;;12.20;99.90;;;;;;5142179;27;20537;-68
2023/08/30 04:59:03;;;;;;;15.10;11.93;;;12.10;99.90;;;;;;5142722;27;20026;-67
2023/08/30 05:01:29;;;;;;;14.30;10.52;;;12.20;99.90;;;;;;5129047;27;20058;-67
2023/08/30 05:03:55;;;;;;;15.75;11.10;;;12.20;99.90;;;;;;5124154;27;20038;-67
2023/08/30 05:06:21;;;;;;;15.70;11.07;;;12.20;99.90;;;;;;5143021;27;20832;-67
2023/08/30 05:08:46;;;;;;;16.13;11.38;;;12.20;99.90;;;;;;5145995;27;20043;-67
2023/08/30 05:11:12;;;;;;;11.98;10.23;;;12.30;99.90;;;;;;5141648;27;20098;-66
2023/08/30 05:13:38;;;;;;;14.95;11.23;;;12.20;99.90;;;;;;5143551;27;20062;-66
2023/08/30 05:16:04;;;;;;;13.27;10.55;;;12.30;99.90;;;;;;5139710;27;20078;-68
2023/08/30 05:18:30;;;;;;;13.80;10.90;;;12.30;99.90;;;;;;5139754;27;20047;-66
2023/08/30 05:20:56;;;;;;;15.68;11.40;;;12.30;99.90;;;;;;5142403;27;20042;-67
2023/08/30 05:23:21;;;;;;;13.38;10.90;;;12.40;99.90;;;;;;5143114;27;20057;-66
2023/08/30 05:25:47;;;;;;;14.15;10.70;;;12.50;99.90;;;;;;5122579;27;20062;-67
2023/08/30 05:28:13;;;;;;;13.25;10.60;;;12.40;99.90;;;;;;5142047;27;20045;-67
2023/08/30 05:30:44;;;;;;;14.38;9.93;;;12.40;99.90;;;;;;5141907;27;20047;-67
2023/08/30 05:33:10;;;;;;;14.90;11.10;;;12.40;99.90;;;;;;5124622;27;20081;-68
2023/08/30 05:35:35;;;;;;;14.35;10.20;;;12.40;99.90;;;;;;5142456;27;20535;-67
2023/08/30 05:38:01;;;;;;;14.95;11.52;;;12.50;99.90;;;;;;5141863;27;20481;-66
2023/08/30 05:40:26;;;;;;;14.75;10.10;;;12.50;99.90;;;;;;5148499;27;20055;-67
2023/08/30 05:42:52;;;;;;;14.32;10.65;;;12.50;99.90;;;;;;5145448;27;20051;-67
2023/08/30 05:45:18;;;;;;;14.00;10.35;;;12.60;99.90;;;;;;5143077;27;20067;-68
2023/08/30 05:47:43;;;;;;;13.55;10.10;;;12.70;99.90;;;;;;5143291;27;20087;-66
2023/08/30 05:50:09;;;;;;;14.75;10.70;;;12.70;99.90;;;;;;5145963;27;20043;-66
2023/08/30 05:52:35;;;;;;;13.05;9.88;;;12.70;99.90;;;;;;5146499;27;20393;-66
2023/08/30 05:55:01;;;;;;;13.15;9.57;;;12.80;99.90;;;;;;5143991;27;20031;-66
2023/08/30 05:57:28;;;;;;;14.95;9.90;;;12.80;99.90;;;;;;5148910;27;20043;-68
2023/08/30 05:59:54;;;;;;;13.90;9.93;;;12.80;99.90;;;;;;5142997;27;20122;-67
2023/08/30 06:02:20;;;;;;;13.18;9.73;;;12.90;99.90;;;;;;5144853;27;20122;-67
2023/08/30 06:04:45;;;;;;;15.77;9.82;;;13.00;99.90;;;;;;5143778;27;20074;-67
2023/08/30 06:07:11;;;;;;;13.95;9.70;;;13.10;99.90;;;;;;5142673;27;20055;-67
2023/08/30 06:09:37;;;;;;;15.07;10.77;;;13.10;99.90;;;;;;5145901;27;20086;-66
2023/08/30 06:12:03;;;;;;;14.77;10.60;;;13.20;99.90;;;;;;5145120;27;20035;-66
2023/08/30 06:14:29;;;;;;;14.85;10.07;;;13.20;99.90;;;;;;5132870;27;20102;-67
2023/08/30 06:16:54;;;;;;;13.90;9.88;;;13.30;99.90;;;;;;5145787;27;20449;-67
2023/08/30 06:19:20;;;;;;;14.63;10.38;;;13.40;99.90;;;;;;5146784;27;20085;-68
2023/08/30 06:21:46;;;;;;;16.50;9.85;;;13.40;99.90;;;;;;5145271;27;20227;-66
2023/08/30 06:24:11;;;;;;;17.08;10.95;;;13.40;99.90;;;;;;5124090;27;20066;-67
2023/08/30 06:26:37;;;;;;;13.73;10.05;;;13.50;99.90;;;;;;5145189;27;20073;-66
2023/08/30 06:29:03;;;;;;;15.93;10.43;;;13.50;99.90;;;;;;5141872;27;20035;-69
2023/08/30 06:31:28;;;;;;;13.88;10.13;;;13.50;99.90;;;;;;5142385;27;20043;-69
2023/08/30 06:33:54;;;;;;;15.20;10.38;;;13.50;99.90;;;;;;5144540;27;20050;-70
2023/08/30 06:36:22;;;;;;;14.15;9.90;;;13.50;99.90;;;;;;5145078;27;20043;-68
2023/08/30 06:38:48;;;;;;;16.35;10.75;;;13.50;99.90;;;;;;5149603;27;20038;-70
2023/08/30 06:41:14;;;;;;;13.05;9.95;;;13.50;99.90;;;;;;5145253;27;20035;-69
2023/08/30 06:43:39;;;;;;;14.27;10.60;;;13.60;99.90;;;;;;5144958;27;20115;-71
2023/08/30 06:46:05;;;;;;;13.77;10.05;;;13.60;99.90;;;;;;5139916;27;20053;-68
2023/08/30 06:48:30;;;;;;;15.57;9.75;;;13.60;99.90;;;;;;5144692;27;20047;-68
2023/08/30 06:50:59;;;;;;;16.30;9.77;;;13.60;99.90;;;;;;5144668;27;20039;-67
2023/08/30 06:53:28;;;;;;;13.30;9.98;;;13.60;99.90;;;;;;5145069;27;20038;-67
2023/08/30 06:56:00;;;;;;;13.90;9.73;;;13.70;99.90;;;;;;5144361;27;20578;-69
2023/08/30 06:58:27;;;;;;;18.17;10.70;;;13.70;99.90;;;;;;5141391;27;20116;-68
2023/08/30 07:00:53;;;;;;;15.55;10.05;;;13.70;99.90;;;;;;5123343;27;20049;-69
2023/08/30 07:03:18;;;;;;;14.02;10.07;;;13.80;99.90;;;;;;5142371;27;20118;-69
2023/08/30 07:05:44;;;;;;;12.20;9.65;;;13.70;99.90;;;;;;5148390;27;20031;-70
2023/08/30 07:08:10;;;;;;;13.48;10.10;;;13.80;99.90;;;;;;5144713;27;20046;-68
2023/08/30 07:10:35;;;;;;;15.75;9.82;;;13.80;99.90;;;;;;5139323;27;20046;-67
2023/08/30 07:13:01;;;;;;;14.68;9.93;;;14.00;99.90;;;;;;5144644;27;20050;-68
2023/08/30 07:15:27;;;;;;;13.85;10.30;;;13.90;99.90;;;;;;5144237;27;20055;-67
2023/08/30 07:17:53;;;;;;;15.98;9.80;;;13.90;99.90;;;;;;5144949;27;20147;-67
2023/08/30 07:20:18;;;;;;;14.40;9.55;;;14.00;99.90;;;;;;5144942;27;20039;-69
2023/08/30 07:22:44;;;;;;;13.30;9.57;;;14.10;99.90;;;;;;5137398;27;20051;-68
2023/08/30 07:25:10;;;;;;;22.90;10.60;;;14.20;99.90;;;;;;5144235;27;20039;-67
2023/08/30 07:27:36;;;;;;;14.95;9.85;;;14.20;99.90;;;;;;5143807;27;20090;-67
2023/08/30 07:30:04;;;;;;;12.70;9.10;;;14.30;99.90;;;;;;5140897;27;20042;-68
2023/08/30 07:32:29;;;;;;;13.57;9.65;;;14.40;99.90;;;;;;5146010;27;20039;-67
2023/08/30 07:34:55;;;;;;;14.05;9.07;;;14.50;99.90;;;;;;5142938;27;20048;-67
2023/08/30 07:37:21;;;;;;;13.55;8.93;;;14.70;99.90;;;;;;5133099;27;20175;-68
2023/08/30 07:39:47;;;;;;;16.75;9.63;;;14.80;99.90;;;;;;5125773;27;20042;-66
2023/08/30 07:42:14;;;;;;;15.75;8.25;;;15.00;99.90;;;;;;5144316;27;20042;-67
2023/08/30 07:44:40;;;;;;;16.17;8.65;;;15.10;99.90;;;;;;5143742;27;20047;-66
2023/08/30 07:47:05;;;;;;;14.85;8.52;;;15.20;99.90;;;;;;5123249;27;20114;-66
2023/08/30 07:49:31;;;;;;;13.73;8.82;;;15.30;99.90;;;;;;5127364;27;20065;-69
2023/08/30 07:51:57;;;;;;;12.65;8.32;;;15.30;99.90;;;;;;5151986;27;20570;-66
2023/08/30 07:54:22;;;;;;;12.90;8.93;;;15.40;99.90;;;;;;5152454;27;20397;-66
2023/08/30 07:56:48;;;;;;;13.73;8.48;;;15.50;99.90;;;;;;5143816;27;20142;-68
2023/08/30 07:59:14;;;;;;;13.15;8.75;;;15.60;99.90;;;;;;5140338;27;20053;-66
2023/08/30 08:01:40;;;;;;;14.13;8.60;;;15.80;99.90;;;;;;5121485;27;20047;-67
2023/08/30 08:04:05;;;;;;;13.65;8.90;;;15.80;99.90;;;;;;5122632;27;20045;-70
2023/08/30 08:06:31;;;;;;;16.08;8.60;;;15.90;99.90;;;;;;5120615;27;20035;-67
2023/08/30 08:08:56;;;;;;;14.57;9.50;;;15.90;99.90;;;;;;5126429;27;20083;-69
2023/08/30 08:11:22;;;;;;;13.00;9.05;;;16.00;99.90;;;;;;5123194;27;20046;-68
2023/08/30 08:13:48;;;;;;;14.35;9.05;;;16.00;99.90;;;;;;5126458;27;20121;-65
2023/08/30 08:16:13;;;;;;;13.65;8.90;;;16.00;99.90;;;;;;5128387;27;20027;-67
2023/08/30 08:18:39;;;;;;;13.77;8.90;;;16.10;99.90;;;;;;5127804;27;20397;-69
2023/08/30 08:21:04;;;;;;;12.13;8.38;;;16.10;99.90;;;;;;5125303;27;20050;-66
2023/08/30 08:23:30;;;;;;;13.02;8.60;;;16.10;99.90;;;;;;5123330;27;20070;-67
2023/08/30 08:26:00;;;;;;;13.15;8.88;;;16.10;99.90;;;;;;5127794;27;20039;-68
2023/08/30 08:28:26;;;;;;;13.68;8.27;;;16.10;99.90;;;;;;5123869;27;20129;-68
2023/08/30 08:30:51;;;;;;;14.38;8.80;;;16.20;99.90;;;;;;5122465;27;20043;-69
2023/08/30 08:33:17;;;;;;;16.92;9.20;;;16.20;99.90;;;;;;5120270;27;20052;-66
2023/08/30 08:35:44;;;;;;;15.20;9.13;;;16.30;99.90;;;;;;5118864;27;20156;-67
2023/08/30 08:38:11;;;;;;;11.43;7.85;;;16.30;99.90;;;;;;5122432;27;20482;-67
2023/08/30 08:40:38;;;;;;;13.55;8.43;;;16.40;99.90;;;;;;5122116;27;20054;-70
2023/08/30 08:43:05;;;;;;;11.32;7.60;;;16.40;99.90;;;;;;5121582;27;20106;-66
2023/08/30 08:45:40;;;;;;;11.95;8.60;;;16.50;99.90;;;;;;5120461;27;20035;-68
2023/08/30 08:48:06;;;;;;;;;;;16.40;99.90;;;;;;5123326;27;20079;-68
2023/08/30 08:50:35;;;;;;;12.82;8.45;;;16.50;99.90;;;;;;5126427;27;19958;-69
2023/08/30 08:53:02;;;;;;;11.00;7.78;;;16.40;99.90;;;;;;5122038;27;20122;-69
2023/08/30 08:55:30;;;;;;;11.40;7.60;;;16.40;99.90;;;;;;5119943;27;20486;-66
2023/08/30 08:57:57;;;;;;;10.95;8.40;;;16.40;99.90;;;;;;5121851;27;20088;-69
2023/08/30 09:00:24;;;;;;;15.20;8.23;;;16.40;99.90;;;;;;5119475;27;20059;-67
2023/08/30 09:02:51;;;;;;;13.77;8.18;;;16.30;99.90;;;;;;5112416;27;20042;-68
2023/08/30 09:05:18;;;;;;;12.57;7.88;;;16.30;99.90;;;;;;5095715;27;20047;-68
2023/08/30 09:07:45;;;;;;;13.25;8.00;;;16.30;99.90;;;;;;5126676;27;20358;-70
2023/08/30 09:10:11;;;;;;;15.00;8.00;;;16.30;99.90;;;;;;5111667;27;20134;-69
2023/08/30 09:12:36;;;;;;;11.05;7.43;;;16.20;99.90;;;;;;5130254;27;20146;-70
2023/08/30 09:15:04;;;;;;;11.05;8.07;;;16.20;99.90;;;;;;5131080;27;20452;-68
2023/08/30 09:17:37;;;;;;;11.10;7.50;;;16.30;99.90;;;;;;5130338;27;20039;-68
2023/08/30 09:20:09;;;;;;;11.95;7.95;;;16.20;99.90;;;;;;5121847;28;20031;-68
2023/08/30 09:22:39;;;;;;;11.70;7.68;;;16.20;99.90;;;;;;5120573;27;20062;-69
2023/08/30 09:25:08;;;;;;;11.43;7.80;;;16.20;99.90;;;;;;5126526;27;20405;-68
2023/08/30 09:27:35;;;;;;;11.00;8.18;;;16.30;99.90;;;;;;5130184;28;20154;-66
2023/08/30 09:30:02;;;;;;;11.52;8.25;;;16.30;99.90;;;;;;5131452;27;20043;-69
2023/08/30 09:32:28;;;;;;;11.48;7.50;;;16.30;99.90;;;;;;5130868;28;20114;-71
2023/08/30 09:34:54;;;;;;;10.77;8.02;;;16.30;99.90;;;;;;5130398;28;20485;-67
2023/08/30 09:37:23;;;;;;;11.82;8.95;;;16.40;99.90;;;;;;5130935;28;20656;-67
2023/08/30 09:39:52;;;;;;;14.77;8.80;;;16.40;99.90;;;;;;5132073;27;20038;-72
2023/08/30 09:42:18;;;;;;;11.75;8.60;;;16.40;99.90;;;;;;5130649;28;20391;-67
2023/08/30 09:44:43;;;;;;;13.00;8.43;;;16.40;99.90;;;;;;5130819;28;20062;-72
2023/08/30 09:47:09;;;;;;;11.85;7.45;;;16.30;99.90;;;;;;5130501;28;20051;-72
2023/08/30 09:49:43;;;;;;;11.85;7.55;;;16.40;99.90;;;;;;5131134;27;20081;-70
2023/08/30 09:52:09;;;;;;;11.50;8.48;;;16.30;99.90;;;;;;5132239;27;20035;-67
2023/08/30 09:54:41;;;;;;;13.23;7.55;;;16.30;99.90;;;;;;5137226;27;20150;-67
2023/08/30 09:57:07;;;;;;;10.95;7.20;;;16.40;99.90;;;;;;5133359;27;20044;-70
2023/08/30 09:59:33;;;;;;;12.63;7.80;;;16.40;99.90;;;;;;5130704;28;20046;-68
2023/08/30 10:02:00;;;;;;;9.80;6.90;;;16.40;99.90;;;;;;5131051;28;20390;-66
2023/08/30 10:04:27;;;;;;;12.02;7.00;;;16.50;99.90;;;;;;5130748;28;20107;-67
2023/08/30 10:06:55;;;;;;;10.07;6.25;;;16.50;99.90;;;;;;5130682;28;20414;-70
2023/08/30 10:09:22;;;;;;;9.60;6.95;;;16.40;99.90;;;;;;5129734;28;20450;-68
2023/08/30 10:11:49;;;;;;;11.05;6.05;;;16.40;99.90;;;;;;5130350;28;20046;-70
2023/08/30 10:14:14;;;;;;;8.90;5.57;;;16.40;99.90;;;;;;5129952;27;20497;-70
2023/08/30 10:16:45;;;;;;;7.55;5.63;;;16.60;99.90;;;;;;5134185;27;20054;-67
2023/08/30 10:19:22;;;;;;;8.98;5.43;;;16.60;99.90;;;;;;5114952;27;20062;-71
2023/08/30 10:21:50;;;;;;;10.05;5.95;;;16.70;99.90;;;;;;5128526;27;20118;-68
2023/08/30 10:24:20;;;;;;;9.48;5.80;;;16.80;99.90;;;;;;5138335;27;20127;-66
2023/08/30 10:26:46;;;;;;;9.32;5.90;;;16.80;99.90;;;;;;5130146;27;20401;-69
2023/08/30 10:29:15;;;;;;;8.75;5.85;;;16.90;99.90;;;;;;5128077;27;20051;-66
2023/08/30 10:31:40;;;;;;;12.40;5.45;;;16.90;99.90;;;;;;5126267;27;20051;-67
2023/08/30 10:34:17;;;;;;;7.35;5.05;;;17.00;99.90;;;;;;5134253;27;20246;-68
2023/08/30 10:36:44;;;;;;;8.27;5.57;;;17.00;99.90;;;;;;5132858;27;20129;-66
2023/08/30 10:39:13;;;;;;;8.55;5.97;;;17.10;99.90;;;;;;5132397;27;20371;-67
2023/08/30 10:41:55;;;;;;;9.98;6.43;;;17.20;99.90;;;;;;5135992;27;20043;-67
2023/08/30 10:44:22;;;;;;;9.27;5.60;;;17.20;99.90;;;;;;5126810;27;20055;-67
2023/08/30 10:46:52;;;;;;;7.47;5.45;;;17.40;99.90;;;;;;5133222;27;20047;-66
2023/08/30 10:49:18;;;;;;;7.78;5.30;;;17.50;99.90;;;;;;5125218;27;20038;-71
2023/08/30 10:51:44;;;;;;;10.27;5.13;;;17.80;99.90;;;;;;5114563;27;20546;-67
2023/08/30 10:54:17;;;;;;;6.65;4.43;;;17.90;99.90;;;;;;5132917;27;20035;-70
2023/08/30 10:56:51;;;;;;;10.60;4.60;;;18.10;99.90;;;;;;5133707;27;20045;-69
2023/08/30 10:59:22;;;;;;;8.07;4.10;;;18.10;99.90;;;;;;5133213;27;20119;-70
2023/08/30 11:01:48;;;;;;;7.45;3.75;;;18.20;99.90;;;;;;5127752;27;20486;-67
2023/08/30 11:04:15;;;;;;;6.95;3.50;;;18.30;99.90;;;;;;5130290;27;20035;-67
2023/08/30 11:06:44;;;;;;;5.78;3.10;;;18.20;99.90;;;;;;5134683;27;20039;-67
2023/08/30 11:09:11;;;;;;;6.47;3.10;;;18.30;99.90;;;;;;5128103;27;20056;-71
2023/08/30 11:11:38;;;;;;;6.20;3.55;;;18.40;99.90;;;;;;5124331;27;20111;-67
2023/08/30 11:14:06;;;;;;;6.07;3.45;;;18.40;99.90;;;;;;5132712;27;20039;-72
2023/08/30 11:16:32;;;;;;;6.38;3.60;;;18.40;99.90;;;;;;5132257;27;20118;-66
2023/08/30 11:18:58;;;;;;;4.80;3.03;;;18.40;99.90;;;;;;5137524;27;20050;-72
2023/08/30 11:21:24;;;;;;;5.72;2.80;;;18.50;99.90;;;;;;5132554;27;20047;-67
2023/08/30 11:23:51;;;;;;;5.60;3.20;;;18.50;99.90;;;;;;5123463;27;20079;-68
2023/08/30 11:26:16;;;;;;;4.15;2.70;;;18.50;99.90;;;;;;5107096;28;20548;-67
2023/08/30 11:28:48;;;;;;;4.80;3.15;;;18.50;99.90;;;;;;5108536;28;20043;-69
2023/08/30 11:31:27;;;;;;;6.72;3.50;;;18.50;99.90;;;;;;5112016;28;20063;-69
2023/08/30 11:33:55;;;;;;;7.45;3.70;;;18.50;99.90;;;;;;5111366;28;20505;-67
2023/08/30 11:36:25;;;;;;;5.65;3.38;;;18.40;99.90;;;;;;5111241;28;20036;-67
2023/08/30 11:38:52;;;;;;;8.60;3.90;;;18.50;99.90;;;;;;5110885;28;20044;-68
2023/08/30 11:41:19;;;;;;;5.65;3.47;;;18.50;99.90;;;;;;5111967;28;20047;-69
2023/08/30 11:43:45;;;;;;;8.55;3.50;;;18.50;99.90;;;;;;5110629;28;20112;-67
2023/08/30 11:46:12;;;;;;;6.40;3.78;;;18.50;99.90;;;;;;5111276;28;20538;-68
2023/08/30 11:48:41;;;;;;;8.43;3.90;;;18.60;99.90;;;;;;5111852;28;20062;-68
2023/08/30 11:51:08;;;;;;;7.47;3.90;;;18.50;99.90;;;;;;5111767;28;20040;-68
2023/08/30 11:53:38;;;;;;;6.15;3.58;;;18.40;99.90;;;;;;5111971;28;20038;-68
2023/08/30 11:56:07;;;;;;;6.10;3.63;;;18.40;99.90;;;;;;5111266;28;20039;-71
2023/08/30 11:58:36;;;;;;;7.20;3.92;;;18.40;99.90;;;;;;5081835;28;20047;-68
2023/08/30 12:01:03;;;;;;;7.60;4.10;;;18.30;99.90;;;;;;5101068;28;20042;-67
2023/08/30 12:03:30;;;;;;;7.05;4.53;;;18.30;99.90;;;;;;5096072;28;20054;-69
2023/08/30 12:05:57;;;;;;;8.13;4.50;;;18.30;99.90;;;;;;5110469;28;20526;-67
2023/08/30 12:08:27;;;;;;;8.27;4.10;;;18.20;99.90;;;;;;5110510;28;20125;-68
2023/08/30 12:10:54;;;;;;;7.88;4.30;;;18.10;99.90;;;;;;5111076;28;20083;-68
2023/08/30 12:13:23;;;;;;;6.70;4.40;;;18.00;99.90;;;;;;5111452;28;20035;-69
2023/08/30 12:15:50;;;;;;;8.05;4.47;;;17.90;99.90;;;;;;5111339;28;20446;-67
2023/08/30 12:18:15;;;;;;;7.43;4.72;;;17.80;99.90;;;;;;5111440;28;20035;-69
2023/08/30 12:20:55;;;;;;;6.57;5.18;;;17.70;99.90;;;;;;5111087;28;20402;-68
2023/08/30 12:23:28;;;;;;;8.27;5.25;;;17.50;99.90;;;;;;5113016;27;20050;-68
2023/08/30 12:26:00;;;;;;;8.55;5.40;;;17.40;99.90;;;;;;5098891;28;20048;-70
2023/08/30 12:28:27;;;;;;;7.53;5.30;;;17.40;99.90;;;;;;5107481;28;20050;-69
2023/08/30 12:30:53;;;;;;;8.15;5.50;;;17.30;99.90;;;;;;5089342;28;20085;-68